createdAt,value
2023-01-13T00:01:25.673Z,8.58
2023-01-13T00:03:52.327Z,8.50
2023-01-13T00:06:21.784Z,8.44
2023-01-13T00:08:49.316Z,8.54
2023-01-13T00:11:15.980Z,8.53
2023-01-13T00:13:42.643Z,8.49
2023-01-13T00:16:12.829Z,8.42
2023-01-13T00:18:39.294Z,8.42
2023-01-13T00:21:09.875Z,8.35
2023-01-13T00:23:36.285Z,8.33
2023-01-13T00:26:05.454Z,8.32
2023-01-13T00:28:32.204Z,8.33
2023-01-13T00:31:09.836Z,8.24
2023-01-13T00:33:37.130Z,8.23
2023-01-13T00:36:05.265Z,8.10
2023-01-13T00:38:33.609Z,8.12
2023-01-13T00:41:05.775Z,8.06
2023-01-13T00:43:33.781Z,8.04
2023-01-13T00:46:00.471Z,7.97
2023-01-13T00:48:28.117Z,7.91
2023-01-13T00:51:00.040Z,7.91
2023-01-13T00:53:27.851Z,7.80
2023-01-13T00:56:00.545Z,7.79
2023-01-13T00:58:27.235Z,7.65
2023-01-13T01:00:53.795Z,7.70
2023-01-13T01:03:20.204Z,7.66
2023-01-13T01:05:46.620Z,7.63
2023-01-13T01:08:13.029Z,7.58
2023-01-13T01:10:39.433Z,7.57
2023-01-13T01:13:05.849Z,7.51
2023-01-13T01:15:32.283Z,7.58
2023-01-13T01:17:58.659Z,7.52
2023-01-13T01:20:25.062Z,7.49
2023-01-13T01:22:51.451Z,7.56
2023-01-13T01:25:17.889Z,7.48
2023-01-13T01:27:44.268Z,7.44
2023-01-13T01:30:11.304Z,7.31
2023-01-13T01:32:37.675Z,7.36
2023-01-13T01:35:04.344Z,7.39
2023-01-13T01:37:30.732Z,7.33
2023-01-13T01:39:57.118Z,7.37
2023-01-13T01:42:23.543Z,7.29
2023-01-13T01:44:58.806Z,7.36
2023-01-13T01:47:27.444Z,7.39
2023-01-13T01:49:55.665Z,7.36
2023-01-13T01:52:37.229Z,7.45
2023-01-13T01:55:10.509Z,7.45
2023-01-13T01:57:47.635Z,7.40
2023-01-13T02:00:14.358Z,7.45
2023-01-13T02:02:43.849Z,7.37
2023-01-13T02:05:10.619Z,7.38
2023-01-13T02:07:39.830Z,7.36
2023-01-13T02:10:08.835Z,7.35
2023-01-13T02:12:36.404Z,7.39
2023-01-13T02:15:15.480Z,7.30
2023-01-13T02:17:51.020Z,7.38
2023-01-13T02:20:48.533Z,7.38
2023-01-13T02:23:36.982Z,7.36
2023-01-13T02:26:39.764Z,7.38
2023-01-13T02:29:24.925Z,7.32
2023-01-13T02:31:55.209Z,7.37
2023-01-13T02:34:34.274Z,7.35
2023-01-13T02:37:10.146Z,7.40
2023-01-13T02:39:44.900Z,7.38
2023-01-13T02:42:28.862Z,7.38
2023-01-13T02:45:11.808Z,7.29
2023-01-13T02:47:40.139Z,7.36
2023-01-13T02:50:15.117Z,7.38
2023-01-13T02:52:46.295Z,7.36
2023-01-13T02:55:17.375Z,7.30
2023-01-13T02:57:45.119Z,7.34
2023-01-13T03:00:12.967Z,7.30
2023-01-13T03:02:39.840Z,7.26
2023-01-13T03:05:06.526Z,7.31
2023-01-13T03:07:57.500Z,7.34
2023-01-13T03:10:38.579Z,7.36
2023-01-13T03:13:42.084Z,7.38
2023-01-13T03:16:34.553Z,7.42
2023-01-13T03:19:22.849Z,7.41
2023-01-13T03:22:08.254Z,7.36
2023-01-13T03:24:39.258Z,7.42
2023-01-13T03:27:08.310Z,7.41
2023-01-13T03:29:40.915Z,7.39
2023-01-13T03:32:16.224Z,7.35
2023-01-13T03:34:50.335Z,7.35
2023-01-13T03:37:21.151Z,7.33
2023-01-13T03:39:52.861Z,7.34
2023-01-13T03:42:25.991Z,7.30
2023-01-13T03:44:58.978Z,7.35
2023-01-13T03:47:29.364Z,7.35
2023-01-13T03:50:20.543Z,7.37
2023-01-13T03:52:53.095Z,7.37
2023-01-13T03:55:26.745Z,7.40
2023-01-13T03:58:09.790Z,7.44
2023-01-13T04:01:03.654Z,7.45
2023-01-13T04:03:48.799Z,7.44
2023-01-13T04:06:33.994Z,7.35
2023-01-13T04:09:18.760Z,7.45
2023-01-13T04:11:55.224Z,7.48
2023-01-13T04:14:25.612Z,7.47
2023-01-13T04:16:51.980Z,7.46
2023-01-13T04:19:18.383Z,7.46
2023-01-13T04:21:44.878Z,7.50
2023-01-13T04:24:11.319Z,7.41
2023-01-13T04:26:37.741Z,7.40
2023-01-13T04:29:04.117Z,7.39
2023-01-13T04:31:30.448Z,7.31
2023-01-13T04:33:56.763Z,7.36
2023-01-13T04:36:23.028Z,7.34
2023-01-13T04:38:50.295Z,7.35
2023-01-13T04:41:16.643Z,7.24
2023-01-13T04:43:42.966Z,7.27
2023-01-13T04:46:09.368Z,7.28
2023-01-13T04:48:35.732Z,7.28
2023-01-13T04:51:02.097Z,7.26
2023-01-13T04:53:28.644Z,7.19
2023-01-13T04:55:54.994Z,7.18
2023-01-13T04:58:21.389Z,7.23
2023-01-13T05:00:47.793Z,7.14
2023-01-13T05:03:14.204Z,7.11
2023-01-13T05:05:40.581Z,7.14
2023-01-13T05:08:06.979Z,7.12
2023-01-13T05:10:33.299Z,7.11
2023-01-13T05:12:59.714Z,7.06
2023-01-13T05:15:26.118Z,7.08
2023-01-13T05:17:52.537Z,7.00
2023-01-13T05:20:19.131Z,7.07
2023-01-13T05:22:45.450Z,7.05
2023-01-13T05:25:12.485Z,7.05
2023-01-13T05:27:38.875Z,7.01
2023-01-13T05:30:06.267Z,6.96
2023-01-13T05:32:32.595Z,6.82
2023-01-13T05:34:59.229Z,6.83
2023-01-13T05:37:26.073Z,6.87
2023-01-13T05:39:52.429Z,6.76
2023-01-13T05:42:18.789Z,6.79
2023-01-13T05:44:45.125Z,6.79
2023-01-13T05:47:11.490Z,6.82
2023-01-13T05:49:37.964Z,6.79
2023-01-13T05:52:04.451Z,6.70
2023-01-13T05:54:30.804Z,6.77
2023-01-13T05:56:57.116Z,6.81
2023-01-13T05:59:23.355Z,6.80
2023-01-13T06:01:49.691Z,6.83
2023-01-13T06:04:16.137Z,6.85
2023-01-13T06:06:42.455Z,6.89
2023-01-13T06:09:08.712Z,6.92
2023-01-13T06:11:35.035Z,6.97
2023-01-13T06:14:01.434Z,7.01
2023-01-13T06:16:27.877Z,7.02
2023-01-13T06:18:54.316Z,7.05
2023-01-13T06:21:20.723Z,7.04
2023-01-13T06:23:47.108Z,7.03
2023-01-13T06:26:20.318Z,7.05
2023-01-13T06:28:46.732Z,7.06
2023-01-13T06:31:13.241Z,7.08
2023-01-13T06:33:45.713Z,7.05
2023-01-13T06:36:18.905Z,7.03
2023-01-13T06:38:49.787Z,7.10
2023-01-13T06:41:16.976Z,7.09
2023-01-13T06:43:43.440Z,7.09
2023-01-13T06:46:09.794Z,7.07
2023-01-13T06:48:36.146Z,7.19
2023-01-13T06:51:03.831Z,7.22
2023-01-13T06:53:30.241Z,7.17
2023-01-13T06:55:56.607Z,7.25
2023-01-13T06:58:22.986Z,7.26
2023-01-13T07:00:49.384Z,7.30
2023-01-13T07:03:18.128Z,7.25
2023-01-13T07:05:52.031Z,7.28
2023-01-13T07:08:18.412Z,7.28
2023-01-13T07:10:44.800Z,7.25
2023-01-13T07:13:11.185Z,7.31
2023-01-13T07:15:37.714Z,7.23
2023-01-13T07:18:04.115Z,7.31
2023-01-13T07:20:30.623Z,7.34
2023-01-13T07:22:58.265Z,7.42
2023-01-13T07:25:24.917Z,7.38
2023-01-13T07:27:51.350Z,7.45
2023-01-13T07:30:18.072Z,7.40
2023-01-13T07:32:44.598Z,7.46
2023-01-13T07:35:11.134Z,7.47
2023-01-13T07:37:37.928Z,7.43
2023-01-13T07:40:05.216Z,7.46
2023-01-13T07:42:31.580Z,7.41
2023-01-13T07:44:58.040Z,7.49
2023-01-13T07:47:24.470Z,7.49
2023-01-13T07:49:51.028Z,7.41
2023-01-13T07:52:17.396Z,7.48
2023-01-13T07:54:43.708Z,7.43
2023-01-13T07:57:10.184Z,7.51
2023-01-13T07:59:36.557Z,7.49
2023-01-13T08:02:03.226Z,7.50
2023-01-13T08:04:29.737Z,7.48
2023-01-13T08:06:56.266Z,7.53
2023-01-13T08:09:22.576Z,7.50
2023-01-13T08:11:48.972Z,7.41
2023-01-13T08:14:15.402Z,7.49
2023-01-13T08:16:41.882Z,7.45
2023-01-13T08:19:08.261Z,7.42
2023-01-13T08:21:34.581Z,7.46
2023-01-13T08:24:00.903Z,7.43
2023-01-13T08:26:27.265Z,7.43
2023-01-13T08:28:53.798Z,7.48
2023-01-13T08:31:20.368Z,7.51
2023-01-13T08:33:46.817Z,7.48
2023-01-13T08:36:13.403Z,7.50
2023-01-13T08:38:40.656Z,7.51
2023-01-13T08:41:15.602Z,7.46
2023-01-13T08:43:42.163Z,7.51
2023-01-13T08:46:08.785Z,7.44
2023-01-13T08:48:35.297Z,7.48
2023-01-13T08:51:06.494Z,7.39
2023-01-13T08:53:32.921Z,7.48
2023-01-13T08:55:59.336Z,7.43
2023-01-13T08:58:25.729Z,7.46
2023-01-13T09:00:52.203Z,7.42
2023-01-13T09:03:18.628Z,7.42
2023-01-13T09:05:44.979Z,7.44
2023-01-13T09:08:11.337Z,7.38
2023-01-13T09:10:37.739Z,7.32
2023-01-13T09:13:04.056Z,7.27
2023-01-13T09:15:30.447Z,7.29
2023-01-13T09:17:56.902Z,7.31
2023-01-13T09:20:23.325Z,7.20
2023-01-13T09:22:49.706Z,7.14
2023-01-13T09:25:16.124Z,7.15
2023-01-13T09:27:42.462Z,7.13
2023-01-13T09:30:09.550Z,7.17
2023-01-13T09:32:36.078Z,7.17
2023-01-13T09:35:02.444Z,7.18
2023-01-13T09:37:33.042Z,7.19
2023-01-13T09:40:00.203Z,7.18
2023-01-13T09:42:38.109Z,7.17
2023-01-13T09:45:14.380Z,7.14
2023-01-13T09:47:57.160Z,7.21
2023-01-13T09:50:57.707Z,7.24
2023-01-13T09:53:39.384Z,7.15
2023-01-13T09:56:06.370Z,7.31
2023-01-13T09:58:33.160Z,7.35
2023-01-13T10:01:37.033Z,7.38
2023-01-13T10:04:10.207Z,7.38
2023-01-13T10:06:39.533Z,7.42
2023-01-13T10:09:06.321Z,7.49
2023-01-13T10:11:39.432Z,7.47
2023-01-13T10:14:37.996Z,7.51
2023-01-13T10:17:21.075Z,7.49
2023-01-13T10:19:59.725Z,7.53
2023-01-13T10:22:41.425Z,7.50
2023-01-13T10:25:38.713Z,7.54
2023-01-13T10:28:14.033Z,7.54
2023-01-13T10:30:42.934Z,7.55
2023-01-13T10:33:18.404Z,7.57
2023-01-13T10:36:01.292Z,7.57
2023-01-13T10:38:30.324Z,7.58
2023-01-13T10:41:02.429Z,7.67
2023-01-13T10:43:29.767Z,7.59
2023-01-13T10:46:06.569Z,7.65
2023-01-13T10:48:38.959Z,7.70
2023-01-13T10:51:31.060Z,7.70
2023-01-13T10:53:57.396Z,7.69
2023-01-13T10:56:27.200Z,7.79
2023-01-13T10:59:20.595Z,7.81
2023-01-13T11:02:04.052Z,7.77
2023-01-13T11:04:43.774Z,7.81
2023-01-13T11:07:39.840Z,7.84
2023-01-13T11:10:09.040Z,7.84
2023-01-13T11:12:58.297Z,7.81
2023-01-13T11:15:38.360Z,7.87
2023-01-13T11:18:35.154Z,7.86
2023-01-13T11:21:06.776Z,7.81
2023-01-13T11:23:39.455Z,7.77
2023-01-13T11:26:31.768Z,7.75
2023-01-13T11:29:10.388Z,7.75
2023-01-13T11:31:42.723Z,7.74
2023-01-13T11:34:29.739Z,7.70
2023-01-13T11:36:59.035Z,7.73
2023-01-13T11:39:48.826Z,7.77
2023-01-13T11:42:43.273Z,7.79
2023-01-13T11:45:21.350Z,7.78
2023-01-13T11:47:55.038Z,7.84
2023-01-13T11:50:34.286Z,7.86
2023-01-13T11:53:00.550Z,7.84
2023-01-13T11:55:55.799Z,7.81
2023-01-13T11:59:11.838Z,7.93
2023-01-13T12:01:47.724Z,7.95
2023-01-13T12:04:23.367Z,7.94
2023-01-13T12:07:06.004Z,8.04
2023-01-13T12:09:42.295Z,7.99
2023-01-13T12:12:39.244Z,8.03
2023-01-13T12:15:31.905Z,8.02
2023-01-13T12:18:03.511Z,8.08
2023-01-13T12:20:43.803Z,8.06
2023-01-13T12:23:41.203Z,8.10
2023-01-13T12:26:12.308Z,8.03
2023-01-13T12:29:01.537Z,8.06
2023-01-13T12:31:28.984Z,8.12
2023-01-13T12:34:26.406Z,8.11
2023-01-13T12:36:58.702Z,8.09
2023-01-13T12:39:39.872Z,8.06
2023-01-13T12:42:10.474Z,8.04
2023-01-13T12:44:36.930Z,8.01
2023-01-13T12:47:03.412Z,8.05
2023-01-13T12:49:33.065Z,8.04
2023-01-13T12:52:04.632Z,8.03
2023-01-13T12:54:30.986Z,8.11
2023-01-13T12:56:58.169Z,8.13
2023-01-13T12:59:24.493Z,8.13
2023-01-13T13:02:09.037Z,8.16
2023-01-13T13:04:47.839Z,8.19
2023-01-13T13:07:22.393Z,8.19
2023-01-13T13:09:57.940Z,8.23
2023-01-13T13:12:30.111Z,8.25
2023-01-13T13:14:57.606Z,8.27
2023-01-13T13:17:29.780Z,8.22
2023-01-13T13:19:57.721Z,8.29
2023-01-13T13:22:26.921Z,8.28
2023-01-13T13:24:56.270Z,8.24
2023-01-13T13:27:46.843Z,8.27
2023-01-13T13:30:39.249Z,8.36
2023-01-13T13:33:20.860Z,8.41
2023-01-13T13:36:28.608Z,8.47
2023-01-13T13:39:10.345Z,8.50
2023-01-13T13:41:44.277Z,8.49
2023-01-13T13:44:20.370Z,8.61
2023-01-13T13:46:48.940Z,8.67
2023-01-13T13:49:18.231Z,8.72
2023-01-13T13:52:02.534Z,8.74
2023-01-13T13:54:29.953Z,8.64
2023-01-13T13:56:56.372Z,8.66
2023-01-13T13:59:26.586Z,8.67
2023-01-13T14:01:56.844Z,8.61
2023-01-13T14:04:24.701Z,8.66
2023-01-13T14:07:16.510Z,8.63
2023-01-13T14:09:46.208Z,8.57
2023-01-13T14:12:25.760Z,8.66
2023-01-13T14:14:52.216Z,8.59
2023-01-13T14:17:22.869Z,8.70
2023-01-13T14:19:55.931Z,8.72
2023-01-13T14:22:22.502Z,8.72
2023-01-13T14:24:49.511Z,8.74
2023-01-13T14:27:18.575Z,8.69
2023-01-13T14:29:45.429Z,8.69
2023-01-13T14:32:19.236Z,8.72
2023-01-13T14:34:46.019Z,8.71
2023-01-13T14:37:39.628Z,8.71
2023-01-13T14:40:06.859Z,8.64
2023-01-13T14:42:33.273Z,8.69
2023-01-13T14:44:59.783Z,8.71
2023-01-13T14:47:28.635Z,8.68
2023-01-13T14:50:06.232Z,8.70
2023-01-13T14:52:36.138Z,8.61
2023-01-13T14:55:05.511Z,8.62
2023-01-13T14:57:33.524Z,8.63
2023-01-13T15:00:02.980Z,8.63
2023-01-13T15:02:29.384Z,8.62
2023-01-13T15:04:57.614Z,8.57
2023-01-13T15:07:28.945Z,8.55
2023-01-13T15:09:58.783Z,8.50
2023-01-13T15:12:34.668Z,8.52
2023-01-13T15:15:06.422Z,8.49
2023-01-13T15:17:33.953Z,8.49
2023-01-13T15:20:00.279Z,8.47
2023-01-13T15:22:26.620Z,8.48
2023-01-13T15:24:53.022Z,8.48
2023-01-13T15:27:25.312Z,8.44
2023-01-13T15:29:51.610Z,8.40
2023-01-13T15:32:20.792Z,8.46
2023-01-13T15:34:47.915Z,8.43
2023-01-13T15:37:17.085Z,8.39
2023-01-13T15:39:43.388Z,8.43
2023-01-13T15:42:14.548Z,8.37
2023-01-13T15:44:40.954Z,8.36
2023-01-13T15:47:09.869Z,8.28
2023-01-13T15:49:42.031Z,8.24
2023-01-13T15:52:22.820Z,8.24
2023-01-13T15:54:50.865Z,8.22
2023-01-13T15:57:24.883Z,8.17
2023-01-13T15:59:54.750Z,8.16
2023-01-13T16:02:21.409Z,8.14
2023-01-13T16:04:48.154Z,8.15
2023-01-13T16:07:18.701Z,8.14
2023-01-13T16:09:45.524Z,8.11
2023-01-13T16:12:12.699Z,8.07
2023-01-13T16:14:39.488Z,7.99
2023-01-13T16:17:20.897Z,8.00
2023-01-13T16:19:47.305Z,8.02
2023-01-13T16:22:14.919Z,7.97
2023-01-13T16:24:41.770Z,8.03
2023-01-13T16:27:22.254Z,8.06
2023-01-13T16:29:50.090Z,8.08
2023-01-13T16:32:17.238Z,8.10
2023-01-13T16:34:44.434Z,8.00
2023-01-13T16:37:27.215Z,8.11
2023-01-13T16:39:54.419Z,8.11
2023-01-13T16:42:21.179Z,8.11
2023-01-13T16:44:47.564Z,8.07
2023-01-13T16:47:15.408Z,8.04
2023-01-13T16:49:41.945Z,8.08
2023-01-13T16:52:08.366Z,8.09
2023-01-13T16:54:35.007Z,8.02
2023-01-13T16:57:01.971Z,7.96
2023-01-13T16:59:28.541Z,7.97
2023-01-13T17:01:55.004Z,7.94
2023-01-13T17:04:22.410Z,7.82
2023-01-13T17:07:02.871Z,7.85
2023-01-13T17:09:29.773Z,7.83
2023-01-13T17:11:56.996Z,7.79
2023-01-13T17:14:24.428Z,7.78
2023-01-13T17:16:53.429Z,7.75
2023-01-13T17:19:22.023Z,7.67
2023-01-13T17:21:48.808Z,7.63
2023-01-13T17:24:15.325Z,7.58
2023-01-13T17:26:44.650Z,7.57
2023-01-13T17:29:24.433Z,7.62
2023-01-13T17:31:51.452Z,7.61
2023-01-13T17:34:19.475Z,7.66
2023-01-13T17:36:45.811Z,7.62
2023-01-13T17:39:17.445Z,7.66
2023-01-13T17:41:44.807Z,7.68
2023-01-13T17:44:15.877Z,7.65
2023-01-13T17:46:43.082Z,7.64
2023-01-13T17:49:17.328Z,7.59
2023-01-13T17:51:44.427Z,7.52
2023-01-13T17:54:10.773Z,7.46
2023-01-13T17:56:37.851Z,7.47
2023-01-13T17:59:05.114Z,7.41
2023-01-13T18:01:31.642Z,7.39
2023-01-13T18:03:58.655Z,7.35
2023-01-13T18:06:25.703Z,7.27
2023-01-13T18:08:53.044Z,7.32
2023-01-13T18:11:21.240Z,7.32
2023-01-13T18:13:52.284Z,7.32
2023-01-13T18:16:19.834Z,7.34
2023-01-13T18:18:49.030Z,7.30
2023-01-13T18:21:26.446Z,7.31
2023-01-13T18:23:52.875Z,7.28
2023-01-13T18:26:20.123Z,7.23
2023-01-13T18:28:46.460Z,7.28
2023-01-13T18:31:12.929Z,7.24
2023-01-13T18:33:39.301Z,7.30
2023-01-13T18:36:07.314Z,7.31
2023-01-13T18:38:33.746Z,7.33
2023-01-13T18:41:00.179Z,7.35
2023-01-13T18:43:26.539Z,7.28
2023-01-13T18:45:53.140Z,7.37
2023-01-13T18:48:19.549Z,7.39
2023-01-13T18:50:45.928Z,7.36
2023-01-13T18:53:12.287Z,7.36
2023-01-13T18:55:38.843Z,7.31
2023-01-13T18:58:05.393Z,7.26
2023-01-13T19:00:31.772Z,7.25
2023-01-13T19:05:32.557Z,7.11
2023-01-13T19:07:58.964Z,7.06
2023-01-13T19:10:25.306Z,6.99
2023-01-13T19:12:51.627Z,6.97
2023-01-13T19:15:18.107Z,7.02
2023-01-13T19:17:44.573Z,6.92
2023-01-13T19:20:11.493Z,6.94
2023-01-13T19:22:37.896Z,6.89
2023-01-13T19:25:04.852Z,6.84
2023-01-13T19:27:31.478Z,6.89
2023-01-13T19:29:57.907Z,6.91
2023-01-13T19:32:24.485Z,6.90
2023-01-13T19:34:51.075Z,6.98
2023-01-13T19:37:18.006Z,6.97
2023-01-13T19:39:44.619Z,6.93
2023-01-13T19:42:13.371Z,6.88
2023-01-13T19:44:39.828Z,6.90
2023-01-13T19:47:06.183Z,6.79
2023-01-13T19:49:33.029Z,6.80
2023-01-13T19:51:59.387Z,6.74
2023-01-13T19:54:25.762Z,6.67
2023-01-13T19:56:52.423Z,6.72
2023-01-13T19:59:18.831Z,6.68
2023-01-13T20:01:45.212Z,6.67
2023-01-13T20:04:11.616Z,6.65
2023-01-13T20:06:37.973Z,6.62
2023-01-13T20:09:04.347Z,6.65
2023-01-13T20:11:30.742Z,6.64
2023-01-13T20:14:00.970Z,6.64
2023-01-13T20:16:29.366Z,6.63
2023-01-13T20:18:56.458Z,6.63
2023-01-13T20:21:23.136Z,6.68
2023-01-13T20:23:51.225Z,6.67
2023-01-13T20:26:18.377Z,6.75
2023-01-13T20:28:46.350Z,6.77
2023-01-13T20:31:14.014Z,6.85
2023-01-13T20:33:40.559Z,6.87
2023-01-13T20:36:08.318Z,6.91
2023-01-13T20:38:34.675Z,6.93
2023-01-13T20:41:01.796Z,6.94
2023-01-13T20:43:28.208Z,6.97
2023-01-13T20:45:54.550Z,6.97
2023-01-13T20:48:20.825Z,7.04
2023-01-13T20:50:52.625Z,7.02
2023-01-13T20:53:18.992Z,7.10
2023-01-13T20:55:45.606Z,7.13
2023-01-13T20:58:12.004Z,7.13
2023-01-13T21:00:38.447Z,7.12
2023-01-13T21:03:04.846Z,7.09
2023-01-13T21:05:31.299Z,7.13
2023-01-13T21:07:57.717Z,7.09
2023-01-13T21:10:24.101Z,7.10
2023-01-13T21:12:50.436Z,7.07
2023-01-13T21:15:16.827Z,6.98
2023-01-13T21:17:44.886Z,6.97
2023-01-13T21:20:13.813Z,6.90
2023-01-13T21:22:44.534Z,6.88
2023-01-13T21:25:11.091Z,6.83
2023-01-13T21:27:37.619Z,6.85
2023-01-13T21:30:04.955Z,6.83
2023-01-13T21:32:31.427Z,6.79
2023-01-13T21:34:57.791Z,6.72
2023-01-13T21:37:24.666Z,6.70
2023-01-13T21:39:51.075Z,6.71
2023-01-13T21:42:17.685Z,6.63
2023-01-13T21:44:44.070Z,6.64
2023-01-13T21:47:18.619Z,6.65
2023-01-13T21:49:44.986Z,6.60
2023-01-13T21:52:12.902Z,6.62
2023-01-13T21:54:39.681Z,6.61
2023-01-13T21:57:06.070Z,6.59
2023-01-13T21:59:32.572Z,6.60
2023-01-13T22:02:04.792Z,6.57
2023-01-13T22:04:45.331Z,6.49
2023-01-13T22:07:11.788Z,6.51
2023-01-13T22:09:38.104Z,6.51
2023-01-13T22:12:04.922Z,6.53
2023-01-13T22:14:31.724Z,6.52
2023-01-13T22:16:58.089Z,6.49
2023-01-13T22:19:24.525Z,6.55
2023-01-13T22:21:50.882Z,6.48
2023-01-13T22:24:17.229Z,6.44
2023-01-13T22:26:43.467Z,6.49
2023-01-13T22:29:09.802Z,6.51
2023-01-13T22:31:36.110Z,6.58
2023-01-13T22:34:02.783Z,6.62
2023-01-13T22:36:29.189Z,6.71
2023-01-13T22:38:55.995Z,6.72
2023-01-13T22:41:22.885Z,6.81
2023-01-13T22:43:49.370Z,6.85
2023-01-13T22:46:15.897Z,6.83
2023-01-13T22:48:42.267Z,6.83
2023-01-13T22:51:12.729Z,6.85
2023-01-13T22:53:39.651Z,6.81
2023-01-13T22:56:06.826Z,6.76
2023-01-13T22:58:33.581Z,6.80
2023-01-13T23:01:17.463Z,6.83
2023-01-13T23:03:44.411Z,6.88
2023-01-13T23:06:10.951Z,6.87
2023-01-13T23:08:37.366Z,6.88
2023-01-13T23:11:06.619Z,6.92
2023-01-13T23:13:33.495Z,6.95
2023-01-13T23:16:07.324Z,6.99
2023-01-13T23:18:34.179Z,6.97
2023-01-13T23:21:11.329Z,7.03
2023-01-13T23:23:38.492Z,6.98
2023-01-13T23:26:06.828Z,7.02
2023-01-13T23:28:34.376Z,6.98
2023-01-13T23:31:00.849Z,6.95
2023-01-13T23:33:27.463Z,6.92
2023-01-13T23:35:58.550Z,6.91
2023-01-13T23:38:25.188Z,6.88
2023-01-13T23:40:51.548Z,6.83
2023-01-13T23:43:18.058Z,6.87
2023-01-13T23:45:44.528Z,6.86
2023-01-13T23:48:11.119Z,6.91
2023-01-13T23:50:37.526Z,7.00
2023-01-13T23:53:03.892Z,6.97
2023-01-13T23:55:30.231Z,6.97
2023-01-13T23:57:56.590Z,7.09
